sensor_id;sensor_type;location;lat;lon;timestamp;P1;durP1;ratioP1;P2;durP2;ratioP2
16662;SDS011;8445;51.270;9.434;2023-02-28T00:02:13;5.00;;;2.80;;
16662;SDS011;8445;51.270;9.434;2023-02-28T00:04:57;9.83;;;4.23;;
16662;SDS011;8445;51.270;9.434;2023-02-28T00:07:38;5.20;;;3.40;;
16662;SDS011;8445;51.270;9.434;2023-02-28T00:10:36;5.17;;;2.70;;
16662;SDS011;8445;51.270;9.434;2023-02-28T00:13:06;3.20;;;2.50;;
16662;SDS011;8445;51.270;9.434;2023-02-28T00:15:58;2.80;;;2.20;;
16662;SDS011;8445;51.270;9.434;2023-02-28T00:18:44;3.93;;;2.30;;
16662;SDS011;8445;51.270;9.434;2023-02-28T00:21:20;3.37;;;2.43;;
16662;SDS011;8445;51.270;9.434;2023-02-28T00:24:17;2.97;;;2.23;;
16662;SDS011;8445;51.270;9.434;2023-02-28T00:26:47;3.40;;;2.30;;
16662;SDS011;8445;51.270;9.434;2023-02-28T00:29:34;3.23;;;2.30;;
16662;SDS011;8445;51.270;9.434;2023-02-28T00:32:07;4.20;;;2.40;;
16662;SDS011;8445;51.270;9.434;2023-02-28T00:34:33;2.77;;;2.47;;
16662;SDS011;8445;51.270;9.434;2023-02-28T00:37:22;3.53;;;2.33;;
16662;SDS011;8445;51.270;9.434;2023-02-28T00:39:53;2.20;;;2.00;;
16662;SDS011;8445;51.270;9.434;2023-02-28T00:42:43;3.00;;;2.07;;
16662;SDS011;8445;51.270;9.434;2023-02-28T00:45:08;2.13;;;1.93;;
16662;SDS011;8445;51.270;9.434;2023-02-28T00:47:54;3.63;;;2.17;;
16662;SDS011;8445;51.270;9.434;2023-02-28T00:50:57;2.40;;;2.13;;
16662;SDS011;8445;51.270;9.434;2023-02-28T00:54:07;3.50;;;2.70;;
16662;SDS011;8445;51.270;9.434;2023-02-28T00:56:56;2.10;;;2.00;;
16662;SDS011;8445;51.270;9.434;2023-02-28T01:02:15;3.27;;;2.00;;
16662;SDS011;8445;51.270;9.434;2023-02-28T01:05:01;3.10;;;2.17;;
16662;SDS011;8445;51.270;9.434;2023-02-28T01:07:41;2.30;;;2.10;;
16662;SDS011;8445;51.270;9.434;2023-02-28T01:10:38;2.60;;;2.00;;
16662;SDS011;8445;51.270;9.434;2023-02-28T01:13:06;3.00;;;2.17;;
16662;SDS011;8445;51.270;9.434;2023-02-28T01:15:31;2.97;;;2.30;;
16662;SDS011;8445;51.270;9.434;2023-02-28T01:18:05;2.90;;;2.10;;
16662;SDS011;8445;51.270;9.434;2023-02-28T01:20:46;2.50;;;2.20;;
16662;SDS011;8445;51.270;9.434;2023-02-28T01:23:31;3.00;;;2.17;;
16662;SDS011;8445;51.270;9.434;2023-02-28T01:26:20;2.20;;;2.00;;
16662;SDS011;8445;51.270;9.434;2023-02-28T01:29:01;5.17;;;2.30;;
16662;SDS011;8445;51.270;9.434;2023-02-28T01:31:52;3.07;;;2.23;;
16662;SDS011;8445;51.270;9.434;2023-02-28T01:34:41;3.93;;;2.27;;
16662;SDS011;8445;51.270;9.434;2023-02-28T01:37:47;2.90;;;2.60;;
16662;SDS011;8445;51.270;9.434;2023-02-28T01:40:45;2.13;;;2.00;;
16662;SDS011;8445;51.270;9.434;2023-02-28T01:46:21;2.50;;;1.97;;
16662;SDS011;8445;51.270;9.434;2023-02-28T01:49:20;2.57;;;1.83;;
16662;SDS011;8445;51.270;9.434;2023-02-28T01:52:09;5.20;;;2.50;;
16662;SDS011;8445;51.270;9.434;2023-02-28T01:55:18;2.77;;;2.13;;
16662;SDS011;8445;51.270;9.434;2023-02-28T01:58:19;2.37;;;2.10;;
16662;SDS011;8445;51.270;9.434;2023-02-28T02:00:58;3.57;;;2.30;;
16662;SDS011;8445;51.270;9.434;2023-02-28T02:03:44;2.83;;;2.10;;
16662;SDS011;8445;51.270;9.434;2023-02-28T02:06:10;2.87;;;1.90;;
16662;SDS011;8445;51.270;9.434;2023-02-28T02:08:36;2.83;;;2.30;;
16662;SDS011;8445;51.270;9.434;2023-02-28T02:33:35;3.30;;;2.30;;
16662;SDS011;8445;51.270;9.434;2023-02-28T02:39:36;1.77;;;1.67;;
16662;SDS011;8445;51.270;9.434;2023-02-28T02:41:52;2.23;;;2.00;;
16662;SDS011;8445;51.270;9.434;2023-02-28T02:44:26;2.30;;;1.93;;
16662;SDS011;8445;51.270;9.434;2023-02-28T02:47:00;3.87;;;2.50;;
16662;SDS011;8445;51.270;9.434;2023-02-28T02:49:35;5.10;;;2.57;;
16662;SDS011;8445;51.270;9.434;2023-02-28T02:52:11;2.20;;;1.97;;
16662;SDS011;8445;51.270;9.434;2023-02-28T02:54:43;2.33;;;1.90;;
16662;SDS011;8445;51.270;9.434;2023-02-28T02:57:58;2.57;;;1.70;;
16662;SDS011;8445;51.270;9.434;2023-02-28T03:00:13;1.90;;;1.70;;
16662;SDS011;8445;51.270;9.434;2023-02-28T03:02:45;3.57;;;2.20;;
16662;SDS011;8445;51.270;9.434;2023-02-28T03:05:25;2.57;;;1.77;;
16662;SDS011;8445;51.270;9.434;2023-02-28T03:08:14;1.93;;;1.70;;
16662;SDS011;8445;51.270;9.434;2023-02-28T03:11:36;2.47;;;1.73;;
16662;SDS011;8445;51.270;9.434;2023-02-28T03:24:36;4.80;;;1.93;;
16662;SDS011;8445;51.270;9.434;2023-02-28T03:31:33;1.80;;;1.70;;
16662;SDS011;8445;51.270;9.434;2023-02-28T03:34:08;1.90;;;1.80;;
16662;SDS011;8445;51.270;9.434;2023-02-28T03:37:04;2.67;;;1.63;;
16662;SDS011;8445;51.270;9.434;2023-02-28T03:43:10;1.70;;;1.60;;
16662;SDS011;8445;51.270;9.434;2023-02-28T03:46:09;1.93;;;1.83;;
16662;SDS011;8445;51.270;9.434;2023-02-28T03:49:08;5.33;;;1.70;;
16662;SDS011;8445;51.270;9.434;2023-02-28T03:51:57;1.97;;;1.83;;
16662;SDS011;8445;51.270;9.434;2023-02-28T03:54:54;2.30;;;2.10;;
16662;SDS011;8445;51.270;9.434;2023-02-28T03:57:59;1.93;;;1.83;;
16662;SDS011;8445;51.270;9.434;2023-02-28T04:00:37;2.23;;;2.03;;
16662;SDS011;8445;51.270;9.434;2023-02-28T04:06:36;4.00;;;2.33;;
16662;SDS011;8445;51.270;9.434;2023-02-28T04:09:40;2.23;;;1.67;;
16662;SDS011;8445;51.270;9.434;2023-02-28T04:15:11;2.13;;;2.00;;
16662;SDS011;8445;51.270;9.434;2023-02-28T04:18:05;1.90;;;1.80;;
16662;SDS011;8445;51.270;9.434;2023-02-28T04:20:45;2.90;;;2.00;;
16662;SDS011;8445;51.270;9.434;2023-02-28T04:23:41;2.47;;;1.83;;
16662;SDS011;8445;51.270;9.434;2023-02-28T04:26:24;1.80;;;1.70;;
16662;SDS011;8445;51.270;9.434;2023-02-28T04:29:27;2.63;;;2.03;;
16662;SDS011;8445;51.270;9.434;2023-02-28T04:32:07;4.00;;;2.10;;
16662;SDS011;8445;51.270;9.434;2023-02-28T04:38:22;2.10;;;1.90;;
16662;SDS011;8445;51.270;9.434;2023-02-28T04:41:12;3.27;;;1.93;;
16662;SDS011;8445;51.270;9.434;2023-02-28T04:44:07;2.33;;;2.13;;
16662;SDS011;8445;51.270;9.434;2023-02-28T04:47:03;2.57;;;2.20;;
16662;SDS011;8445;51.270;9.434;2023-02-28T04:49:28;2.40;;;1.87;;
16662;SDS011;8445;51.270;9.434;2023-02-28T04:52:20;4.07;;;2.00;;
16662;SDS011;8445;51.270;9.434;2023-02-28T04:54:55;1.77;;;1.67;;
16662;SDS011;8445;51.270;9.434;2023-02-28T04:57:24;3.10;;;2.00;;
16662;SDS011;8445;51.270;9.434;2023-02-28T05:03:13;2.00;;;1.90;;
16662;SDS011;8445;51.270;9.434;2023-02-28T05:06:00;4.43;;;1.80;;
16662;SDS011;8445;51.270;9.434;2023-02-28T05:08:27;2.67;;;1.97;;
16662;SDS011;8445;51.270;9.434;2023-02-28T05:10:54;2.23;;;2.03;;
16662;SDS011;8445;51.270;9.434;2023-02-28T05:13:20;2.17;;;1.97;;
16662;SDS011;8445;51.270;9.434;2023-02-28T05:15:45;2.60;;;2.40;;
16662;SDS011;8445;51.270;9.434;2023-02-28T05:18:11;2.67;;;1.83;;
16662;SDS011;8445;51.270;9.434;2023-02-28T05:20:36;2.20;;;2.00;;
16662;SDS011;8445;51.270;9.434;2023-02-28T05:23:02;2.10;;;2.00;;
16662;SDS011;8445;51.270;9.434;2023-02-28T05:25:28;2.30;;;2.03;;
16662;SDS011;8445;51.270;9.434;2023-02-28T05:27:54;4.00;;;1.90;;
16662;SDS011;8445;51.270;9.434;2023-02-28T05:30:19;2.60;;;2.40;;
16662;SDS011;8445;51.270;9.434;2023-02-28T05:32:49;3.00;;;1.90;;
16662;SDS011;8445;51.270;9.434;2023-02-28T05:35:16;2.57;;;2.03;;
16662;SDS011;8445;51.270;9.434;2023-02-28T05:37:41;2.50;;;2.27;;
16662;SDS011;8445;51.270;9.434;2023-02-28T05:40:07;2.60;;;2.10;;
16662;SDS011;8445;51.270;9.434;2023-02-28T05:42:36;2.20;;;2.10;;
16662;SDS011;8445;51.270;9.434;2023-02-28T05:45:03;2.83;;;2.10;;
16662;SDS011;8445;51.270;9.434;2023-02-28T05:47:29;2.30;;;2.13;;
16662;SDS011;8445;51.270;9.434;2023-02-28T05:49:58;4.43;;;2.17;;
16662;SDS011;8445;51.270;9.434;2023-02-28T05:52:26;2.97;;;2.13;;
16662;SDS011;8445;51.270;9.434;2023-02-28T05:54:52;3.67;;;2.03;;
16662;SDS011;8445;51.270;9.434;2023-02-28T05:57:18;3.60;;;2.20;;
16662;SDS011;8445;51.270;9.434;2023-02-28T05:59:44;2.67;;;2.33;;
16662;SDS011;8445;51.270;9.434;2023-02-28T06:02:17;2.90;;;2.33;;
16662;SDS011;8445;51.270;9.434;2023-02-28T06:04:45;6.40;;;2.20;;
16662;SDS011;8445;51.270;9.434;2023-02-28T06:07:13;3.47;;;2.10;;
16662;SDS011;8445;51.270;9.434;2023-02-28T06:09:41;3.77;;;2.60;;
16662;SDS011;8445;51.270;9.434;2023-02-28T06:12:16;4.23;;;2.50;;
16662;SDS011;8445;51.270;9.434;2023-02-28T06:14:44;4.53;;;2.70;;
16662;SDS011;8445;51.270;9.434;2023-02-28T06:17:10;4.87;;;2.70;;
16662;SDS011;8445;51.270;9.434;2023-02-28T06:19:39;2.63;;;2.43;;
16662;SDS011;8445;51.270;9.434;2023-02-28T06:22:08;3.23;;;2.77;;
16662;SDS011;8445;51.270;9.434;2023-02-28T06:24:33;3.83;;;2.53;;
16662;SDS011;8445;51.270;9.434;2023-02-28T06:27:06;4.10;;;2.70;;
16662;SDS011;8445;51.270;9.434;2023-02-28T06:29:33;6.57;;;4.37;;
16662;SDS011;8445;51.270;9.434;2023-02-28T06:32:00;5.30;;;2.90;;
16662;SDS011;8445;51.270;9.434;2023-02-28T06:34:34;5.97;;;4.03;;
16662;SDS011;8445;51.270;9.434;2023-02-28T06:37:02;4.17;;;2.50;;
16662;SDS011;8445;51.270;9.434;2023-02-28T06:39:28;3.10;;;2.57;;
16662;SDS011;8445;51.270;9.434;2023-02-28T06:41:57;3.40;;;3.10;;
16662;SDS011;8445;51.270;9.434;2023-02-28T06:44:25;2.60;;;2.40;;
16662;SDS011;8445;51.270;9.434;2023-02-28T06:46:51;3.67;;;2.90;;
16662;SDS011;8445;51.270;9.434;2023-02-28T06:49:24;5.87;;;2.67;;
16662;SDS011;8445;51.270;9.434;2023-02-28T06:51:57;3.20;;;2.73;;
16662;SDS011;8445;51.270;9.434;2023-02-28T06:54:23;4.70;;;2.87;;
16662;SDS011;8445;51.270;9.434;2023-02-28T06:56:51;3.20;;;2.70;;
16662;SDS011;8445;51.270;9.434;2023-02-28T06:59:23;7.50;;;3.30;;
16662;SDS011;8445;51.270;9.434;2023-02-28T07:01:55;4.90;;;2.80;;
16662;SDS011;8445;51.270;9.434;2023-02-28T07:04:21;5.73;;;2.87;;
16662;SDS011;8445;51.270;9.434;2023-02-28T07:06:46;3.50;;;3.17;;
16662;SDS011;8445;51.270;9.434;2023-02-28T07:09:12;5.97;;;3.43;;
16662;SDS011;8445;51.270;9.434;2023-02-28T07:11:48;3.60;;;2.80;;
16662;SDS011;8445;51.270;9.434;2023-02-28T07:14:15;4.70;;;2.80;;
16662;SDS011;8445;51.270;9.434;2023-02-28T07:16:44;4.43;;;2.70;;
16662;SDS011;8445;51.270;9.434;2023-02-28T07:19:10;3.10;;;2.67;;
16662;SDS011;8445;51.270;9.434;2023-02-28T07:21:36;3.20;;;2.50;;
16662;SDS011;8445;51.270;9.434;2023-02-28T07:24:01;4.07;;;3.00;;
16662;SDS011;8445;51.270;9.434;2023-02-28T07:26:34;4.40;;;2.73;;
16662;SDS011;8445;51.270;9.434;2023-02-28T07:29:03;3.60;;;2.60;;
16662;SDS011;8445;51.270;9.434;2023-02-28T07:31:29;3.47;;;2.93;;
16662;SDS011;8445;51.270;9.434;2023-02-28T07:33:55;4.73;;;2.67;;
16662;SDS011;8445;51.270;9.434;2023-02-28T07:36:23;4.80;;;2.30;;
16662;SDS011;8445;51.270;9.434;2023-02-28T07:38:49;4.40;;;2.27;;
16662;SDS011;8445;51.270;9.434;2023-02-28T07:41:20;2.63;;;2.40;;
16662;SDS011;8445;51.270;9.434;2023-02-28T07:43:47;6.97;;;3.63;;
16662;SDS011;8445;51.270;9.434;2023-02-28T07:46:13;3.60;;;2.57;;
16662;SDS011;8445;51.270;9.434;2023-02-28T07:48:40;2.20;;;2.00;;
16662;SDS011;8445;51.270;9.434;2023-02-28T07:51:05;5.37;;;2.80;;
16662;SDS011;8445;51.270;9.434;2023-02-28T07:53:31;4.13;;;2.53;;
16662;SDS011;8445;51.270;9.434;2023-02-28T07:55:57;3.20;;;2.50;;
16662;SDS011;8445;51.270;9.434;2023-02-28T07:58:24;3.43;;;2.03;;
16662;SDS011;8445;51.270;9.434;2023-02-28T08:00:51;4.00;;;2.50;;
16662;SDS011;8445;51.270;9.434;2023-02-28T08:03:20;2.13;;;1.93;;
16662;SDS011;8445;51.270;9.434;2023-02-28T08:05:49;2.70;;;2.10;;
16662;SDS011;8445;51.270;9.434;2023-02-28T08:08:15;3.13;;;2.83;;
16662;SDS011;8445;51.270;9.434;2023-02-28T08:10:42;2.60;;;2.10;;
16662;SDS011;8445;51.270;9.434;2023-02-28T08:13:10;7.23;;;3.10;;
16662;SDS011;8445;51.270;9.434;2023-02-28T08:15:35;4.93;;;2.37;;
16662;SDS011;8445;51.270;9.434;2023-02-28T08:18:01;3.37;;;2.20;;
16662;SDS011;8445;51.270;9.434;2023-02-28T08:20:30;6.17;;;2.60;;
16662;SDS011;8445;51.270;9.434;2023-02-28T08:22:55;3.57;;;2.73;;
16662;SDS011;8445;51.270;9.434;2023-02-28T08:25:26;2.63;;;1.87;;
16662;SDS011;8445;51.270;9.434;2023-02-28T08:27:56;1.97;;;1.87;;
16662;SDS011;8445;51.270;9.434;2023-02-28T08:30:34;3.30;;;2.77;;
16662;SDS011;8445;51.270;9.434;2023-02-28T08:33:09;3.07;;;2.40;;
16662;SDS011;8445;51.270;9.434;2023-02-28T08:36:08;3.00;;;2.43;;
16662;SDS011;8445;51.270;9.434;2023-02-28T08:39:04;3.03;;;2.57;;
16662;SDS011;8445;51.270;9.434;2023-02-28T08:41:51;3.30;;;2.80;;
16662;SDS011;8445;51.270;9.434;2023-02-28T08:48:37;3.07;;;2.77;;
16662;SDS011;8445;51.270;9.434;2023-02-28T08:51:10;3.23;;;2.90;;
16662;SDS011;8445;51.270;9.434;2023-02-28T08:54:07;3.00;;;2.77;;
16662;SDS011;8445;51.270;9.434;2023-02-28T08:57:26;4.30;;;3.00;;
16662;SDS011;8445;51.270;9.434;2023-02-28T09:02:50;3.20;;;2.90;;
16662;SDS011;8445;51.270;9.434;2023-02-28T09:06:04;3.10;;;2.67;;
16662;SDS011;8445;51.270;9.434;2023-02-28T09:08:33;4.60;;;3.03;;
16662;SDS011;8445;51.270;9.434;2023-02-28T09:11:01;4.07;;;3.30;;
16662;SDS011;8445;51.270;9.434;2023-02-28T09:13:28;3.43;;;2.80;;
16662;SDS011;8445;51.270;9.434;2023-02-28T09:16:03;7.47;;;3.83;;
16662;SDS011;8445;51.270;9.434;2023-02-28T09:18:38;2.90;;;2.70;;
16662;SDS011;8445;51.270;9.434;2023-02-28T09:21:05;3.40;;;3.00;;
16662;SDS011;8445;51.270;9.434;2023-02-28T09:23:41;3.20;;;2.67;;
16662;SDS011;8445;51.270;9.434;2023-02-28T09:26:28;5.00;;;3.17;;
16662;SDS011;8445;51.270;9.434;2023-02-28T09:28:54;2.93;;;2.73;;
16662;SDS011;8445;51.270;9.434;2023-02-28T09:31:35;3.20;;;2.70;;
16662;SDS011;8445;51.270;9.434;2023-02-28T09:34:12;4.33;;;2.77;;
16662;SDS011;8445;51.270;9.434;2023-02-28T09:36:38;2.90;;;2.57;;
16662;SDS011;8445;51.270;9.434;2023-02-28T09:39:06;2.80;;;2.47;;
16662;SDS011;8445;51.270;9.434;2023-02-28T09:41:36;5.87;;;3.03;;
16662;SDS011;8445;51.270;9.434;2023-02-28T09:44:33;3.20;;;2.83;;
16662;SDS011;8445;51.270;9.434;2023-02-28T09:50:08;3.87;;;3.30;;
16662;SDS011;8445;51.270;9.434;2023-02-28T09:52:55;3.50;;;3.20;;
16662;SDS011;8445;51.270;9.434;2023-02-28T09:55:31;3.77;;;2.63;;
16662;SDS011;8445;51.270;9.434;2023-02-28T09:57:58;2.97;;;2.77;;
16662;SDS011;8445;51.270;9.434;2023-02-28T10:00:43;3.17;;;2.97;;
16662;SDS011;8445;51.270;9.434;2023-02-28T10:03:24;3.57;;;2.93;;
16662;SDS011;8445;51.270;9.434;2023-02-28T10:08:30;4.23;;;3.20;;
16662;SDS011;8445;51.270;9.434;2023-02-28T10:11:15;3.20;;;2.90;;
16662;SDS011;8445;51.270;9.434;2023-02-28T10:22:00;5.13;;;3.17;;
16662;SDS011;8445;51.270;9.434;2023-02-28T10:26:59;2.67;;;2.40;;
16662;SDS011;8445;51.270;9.434;2023-02-28T10:29:36;4.47;;;2.80;;
16662;SDS011;8445;51.270;9.434;2023-02-28T10:32:17;4.80;;;3.00;;
16662;SDS011;8445;51.270;9.434;2023-02-28T10:34:52;4.70;;;2.90;;
16662;SDS011;8445;51.270;9.434;2023-02-28T10:37:50;3.10;;;2.80;;
16662;SDS011;8445;51.270;9.434;2023-02-28T10:43:02;2.90;;;2.60;;
16662;SDS011;8445;51.270;9.434;2023-02-28T10:45:33;3.07;;;2.73;;
16662;SDS011;8445;51.270;9.434;2023-02-28T10:56:00;3.23;;;2.77;;
16662;SDS011;8445;51.270;9.434;2023-02-28T11:01:16;2.93;;;2.63;;
16662;SDS011;8445;51.270;9.434;2023-02-28T11:03:49;3.07;;;2.83;;
16662;SDS011;8445;51.270;9.434;2023-02-28T11:06:20;3.07;;;2.80;;
16662;SDS011;8445;51.270;9.434;2023-02-28T11:08:54;3.40;;;2.73;;
16662;SDS011;8445;51.270;9.434;2023-02-28T11:11:25;2.80;;;2.40;;
16662;SDS011;8445;51.270;9.434;2023-02-28T11:14:03;6.63;;;3.30;;
16662;SDS011;8445;51.270;9.434;2023-02-28T11:16:34;3.83;;;3.10;;
16662;SDS011;8445;51.270;9.434;2023-02-28T11:19:06;3.13;;;2.73;;
16662;SDS011;8445;51.270;9.434;2023-02-28T11:21:48;3.10;;;2.80;;
16662;SDS011;8445;51.270;9.434;2023-02-28T11:24:25;3.80;;;2.97;;
16662;SDS011;8445;51.270;9.434;2023-02-28T11:26:53;2.90;;;2.50;;
16662;SDS011;8445;51.270;9.434;2023-02-28T11:29:21;4.53;;;3.10;;
16662;SDS011;8445;51.270;9.434;2023-02-28T11:34:34;5.23;;;3.40;;
16662;SDS011;8445;51.270;9.434;2023-02-28T11:37:00;3.70;;;2.83;;
16662;SDS011;8445;51.270;9.434;2023-02-28T11:39:34;4.87;;;3.50;;
16662;SDS011;8445;51.270;9.434;2023-02-28T11:44:47;4.20;;;3.73;;
16662;SDS011;8445;51.270;9.434;2023-02-28T11:47:45;3.63;;;3.20;;
16662;SDS011;8445;51.270;9.434;2023-02-28T11:59:09;4.33;;;3.60;;
16662;SDS011;8445;51.270;9.434;2023-02-28T12:06:56;3.87;;;3.13;;
16662;SDS011;8445;51.270;9.434;2023-02-28T12:12:10;2.70;;;2.50;;
16662;SDS011;8445;51.270;9.434;2023-02-28T12:14:49;3.83;;;3.03;;
16662;SDS011;8445;51.270;9.434;2023-02-28T12:22:53;3.03;;;2.77;;
16662;SDS011;8445;51.270;9.434;2023-02-28T12:28:27;3.53;;;2.87;;
16662;SDS011;8445;51.270;9.434;2023-02-28T12:30:59;4.07;;;3.30;;
16662;SDS011;8445;51.270;9.434;2023-02-28T12:33:32;4.47;;;3.43;;
16662;SDS011;8445;51.270;9.434;2023-02-28T12:36:01;4.37;;;3.03;;
16662;SDS011;8445;51.270;9.434;2023-02-28T12:38:36;4.10;;;3.33;;
16662;SDS011;8445;51.270;9.434;2023-02-28T12:43:46;3.80;;;3.30;;
16662;SDS011;8445;51.270;9.434;2023-02-28T12:46:23;2.63;;;2.40;;
16662;SDS011;8445;51.270;9.434;2023-02-28T12:48:57;4.63;;;3.43;;
16662;SDS011;8445;51.270;9.434;2023-02-28T12:51:25;4.03;;;3.13;;
16662;SDS011;8445;51.270;9.434;2023-02-28T12:53:54;3.73;;;3.30;;
16662;SDS011;8445;51.270;9.434;2023-02-28T13:02:24;4.60;;;3.80;;
16662;SDS011;8445;51.270;9.434;2023-02-28T13:10:59;7.93;;;4.03;;
16662;SDS011;8445;51.270;9.434;2023-02-28T13:13:26;5.67;;;3.87;;
16662;SDS011;8445;51.270;9.434;2023-02-28T13:18:43;4.80;;;3.83;;
16662;SDS011;8445;51.270;9.434;2023-02-28T13:21:21;4.77;;;3.57;;
16662;SDS011;8445;51.270;9.434;2023-02-28T13:24:07;3.57;;;2.80;;
16662;SDS011;8445;51.270;9.434;2023-02-28T13:32:18;7.13;;;3.40;;
16662;SDS011;8445;51.270;9.434;2023-02-28T13:34:36;5.83;;;4.13;;
16662;SDS011;8445;51.270;9.434;2023-02-28T13:47:44;4.00;;;3.60;;
16662;SDS011;8445;51.270;9.434;2023-02-28T13:53:16;4.23;;;3.83;;
16662;SDS011;8445;51.270;9.434;2023-02-28T13:58:36;3.40;;;3.10;;
16662;SDS011;8445;51.270;9.434;2023-02-28T14:06:29;5.67;;;4.10;;
16662;SDS011;8445;51.270;9.434;2023-02-28T14:09:01;3.87;;;3.40;;
16662;SDS011;8445;51.270;9.434;2023-02-28T14:11:34;6.13;;;3.60;;
16662;SDS011;8445;51.270;9.434;2023-02-28T14:14:01;3.93;;;3.20;;
16662;SDS011;8445;51.270;9.434;2023-02-28T14:19:23;4.10;;;3.60;;
16662;SDS011;8445;51.270;9.434;2023-02-28T14:21:56;4.00;;;3.60;;
16662;SDS011;8445;51.270;9.434;2023-02-28T14:24:50;6.67;;;3.53;;
16662;SDS011;8445;51.270;9.434;2023-02-28T14:38:20;4.13;;;3.33;;
16662;SDS011;8445;51.270;9.434;2023-02-28T14:40:51;6.20;;;4.40;;
16662;SDS011;8445;51.270;9.434;2023-02-28T14:43:19;6.33;;;4.70;;
16662;SDS011;8445;51.270;9.434;2023-02-28T14:45:50;6.67;;;5.40;;
16662;SDS011;8445;51.270;9.434;2023-02-28T14:48:19;4.70;;;3.90;;
16662;SDS011;8445;51.270;9.434;2023-02-28T14:50:56;7.20;;;3.97;;
16662;SDS011;8445;51.270;9.434;2023-02-28T14:53:25;4.80;;;4.07;;
16662;SDS011;8445;51.270;9.434;2023-02-28T14:55:53;5.33;;;3.70;;
16662;SDS011;8445;51.270;9.434;2023-02-28T14:58:21;5.23;;;3.73;;
16662;SDS011;8445;51.270;9.434;2023-02-28T15:01:00;3.07;;;2.77;;
16662;SDS011;8445;51.270;9.434;2023-02-28T15:05:57;6.83;;;4.40;;
16662;SDS011;8445;51.270;9.434;2023-02-28T15:08:25;7.63;;;5.43;;
16662;SDS011;8445;51.270;9.434;2023-02-28T15:11:04;7.37;;;5.30;;
16662;SDS011;8445;51.270;9.434;2023-02-28T15:16:22;6.73;;;4.60;;
16662;SDS011;8445;51.270;9.434;2023-02-28T15:21:21;4.73;;;4.00;;
16662;SDS011;8445;51.270;9.434;2023-02-28T15:23:51;6.07;;;4.30;;
16662;SDS011;8445;51.270;9.434;2023-02-28T15:26:22;4.60;;;4.10;;
16662;SDS011;8445;51.270;9.434;2023-02-28T15:29:00;6.77;;;4.37;;
16662;SDS011;8445;51.270;9.434;2023-02-28T15:31:31;6.40;;;4.00;;
16662;SDS011;8445;51.270;9.434;2023-02-28T15:34:06;6.33;;;4.50;;
16662;SDS011;8445;51.270;9.434;2023-02-28T15:36:42;6.17;;;4.53;;
16662;SDS011;8445;51.270;9.434;2023-02-28T15:39:24;5.07;;;4.37;;
16662;SDS011;8445;51.270;9.434;2023-02-28T15:41:52;5.13;;;4.00;;
16662;SDS011;8445;51.270;9.434;2023-02-28T15:44:34;5.63;;;4.17;;
16662;SDS011;8445;51.270;9.434;2023-02-28T15:47:01;5.67;;;4.13;;
16662;SDS011;8445;51.270;9.434;2023-02-28T15:49:47;5.27;;;4.07;;
16662;SDS011;8445;51.270;9.434;2023-02-28T15:52:18;5.93;;;4.20;;
16662;SDS011;8445;51.270;9.434;2023-02-28T15:54:46;6.07;;;4.13;;
16662;SDS011;8445;51.270;9.434;2023-02-28T15:57:20;5.70;;;4.20;;
16662;SDS011;8445;51.270;9.434;2023-02-28T15:59:55;8.43;;;4.40;;
16662;SDS011;8445;51.270;9.434;2023-02-28T16:02:31;5.60;;;4.57;;
16662;SDS011;8445;51.270;9.434;2023-02-28T16:07:32;5.83;;;4.83;;
16662;SDS011;8445;51.270;9.434;2023-02-28T16:09:59;7.73;;;4.50;;
16662;SDS011;8445;51.270;9.434;2023-02-28T16:12:26;6.47;;;4.67;;
16662;SDS011;8445;51.270;9.434;2023-02-28T16:14:54;5.73;;;4.77;;
16662;SDS011;8445;51.270;9.434;2023-02-28T16:17:26;6.67;;;5.00;;
16662;SDS011;8445;51.270;9.434;2023-02-28T16:19:54;6.90;;;4.90;;
16662;SDS011;8445;51.270;9.434;2023-02-28T16:22:20;11.67;;;4.80;;
16662;SDS011;8445;51.270;9.434;2023-02-28T16:24:46;7.20;;;5.00;;
16662;SDS011;8445;51.270;9.434;2023-02-28T16:27:16;5.30;;;4.80;;
16662;SDS011;8445;51.270;9.434;2023-02-28T16:29:45;6.97;;;4.67;;
16662;SDS011;8445;51.270;9.434;2023-02-28T16:32:12;5.47;;;4.60;;
16662;SDS011;8445;51.270;9.434;2023-02-28T16:34:40;9.33;;;5.10;;
16662;SDS011;8445;51.270;9.434;2023-02-28T16:37:10;6.50;;;4.73;;
16662;SDS011;8445;51.270;9.434;2023-02-28T16:39:37;9.83;;;6.17;;
16662;SDS011;8445;51.270;9.434;2023-02-28T16:42:02;7.90;;;5.47;;
16662;SDS011;8445;51.270;9.434;2023-02-28T16:44:32;7.57;;;5.30;;
16662;SDS011;8445;51.270;9.434;2023-02-28T16:47:00;11.03;;;5.40;;
16662;SDS011;8445;51.270;9.434;2023-02-28T16:49:27;8.33;;;5.80;;
16662;SDS011;8445;51.270;9.434;2023-02-28T16:51:53;7.57;;;6.03;;
16662;SDS011;8445;51.270;9.434;2023-02-28T16:54:19;8.47;;;5.97;;
16662;SDS011;8445;51.270;9.434;2023-02-28T16:56:47;7.93;;;6.57;;
16662;SDS011;8445;51.270;9.434;2023-02-28T16:59:13;7.83;;;5.97;;
16662;SDS011;8445;51.270;9.434;2023-02-28T17:01:42;8.90;;;6.20;;
16662;SDS011;8445;51.270;9.434;2023-02-28T17:04:08;11.23;;;6.50;;
16662;SDS011;8445;51.270;9.434;2023-02-28T17:06:36;10.13;;;6.90;;
16662;SDS011;8445;51.270;9.434;2023-02-28T17:09:01;9.90;;;6.37;;
16662;SDS011;8445;51.270;9.434;2023-02-28T17:11:27;7.80;;;6.53;;
16662;SDS011;8445;51.270;9.434;2023-02-28T17:13:52;7.00;;;6.30;;
16662;SDS011;8445;51.270;9.434;2023-02-28T17:18:54;9.80;;;6.23;;
16662;SDS011;8445;51.270;9.434;2023-02-28T17:21:23;12.13;;;6.83;;
16662;SDS011;8445;51.270;9.434;2023-02-28T17:23:48;8.63;;;6.70;;
16662;SDS011;8445;51.270;9.434;2023-02-28T17:26:15;8.27;;;7.13;;
16662;SDS011;8445;51.270;9.434;2023-02-28T17:28:45;10.20;;;7.80;;
16662;SDS011;8445;51.270;9.434;2023-02-28T17:31:11;8.63;;;6.83;;
16662;SDS011;8445;51.270;9.434;2023-02-28T17:33:37;10.20;;;6.27;;
16662;SDS011;8445;51.270;9.434;2023-02-28T17:36:03;8.20;;;6.33;;
16662;SDS011;8445;51.270;9.434;2023-02-28T17:38:29;9.90;;;7.20;;
16662;SDS011;8445;51.270;9.434;2023-02-28T17:40:54;10.33;;;7.60;;
16662;SDS011;8445;51.270;9.434;2023-02-28T17:43:25;10.10;;;6.87;;
16662;SDS011;8445;51.270;9.434;2023-02-28T17:45:52;9.67;;;6.97;;
16662;SDS011;8445;51.270;9.434;2023-02-28T17:48:18;10.63;;;7.77;;
16662;SDS011;8445;51.270;9.434;2023-02-28T17:50:44;19.57;;;11.37;;
16662;SDS011;8445;51.270;9.434;2023-02-28T17:53:10;16.60;;;9.90;;
16662;SDS011;8445;51.270;9.434;2023-02-28T17:55:35;11.73;;;7.67;;
16662;SDS011;8445;51.270;9.434;2023-02-28T17:58:01;12.07;;;7.73;;
16662;SDS011;8445;51.270;9.434;2023-02-28T18:00:28;8.90;;;7.10;;
16662;SDS011;8445;51.270;9.434;2023-02-28T18:02:54;13.60;;;8.50;;
16662;SDS011;8445;51.270;9.434;2023-02-28T18:05:20;11.80;;;8.23;;
16662;SDS011;8445;51.270;9.434;2023-02-28T18:07:45;13.37;;;8.83;;
16662;SDS011;8445;51.270;9.434;2023-02-28T18:10:15;10.90;;;7.20;;
16662;SDS011;8445;51.270;9.434;2023-02-28T18:12:47;9.07;;;7.27;;
16662;SDS011;8445;51.270;9.434;2023-02-28T18:15:14;11.87;;;6.73;;
16662;SDS011;8445;51.270;9.434;2023-02-28T18:17:40;10.57;;;7.27;;
16662;SDS011;8445;51.270;9.434;2023-02-28T18:20:06;10.60;;;7.33;;
16662;SDS011;8445;51.270;9.434;2023-02-28T18:22:34;13.07;;;7.60;;
16662;SDS011;8445;51.270;9.434;2023-02-28T18:25:01;11.23;;;7.60;;
16662;SDS011;8445;51.270;9.434;2023-02-28T18:27:27;9.33;;;7.23;;
16662;SDS011;8445;51.270;9.434;2023-02-28T18:29:53;12.00;;;8.10;;
16662;SDS011;8445;51.270;9.434;2023-02-28T18:32:18;12.37;;;8.87;;
16662;SDS011;8445;51.270;9.434;2023-02-28T18:34:44;12.87;;;9.00;;
16662;SDS011;8445;51.270;9.434;2023-02-28T18:37:17;10.53;;;8.00;;
16662;SDS011;8445;51.270;9.434;2023-02-28T18:39:44;11.50;;;7.90;;
16662;SDS011;8445;51.270;9.434;2023-02-28T18:42:10;12.50;;;9.40;;
16662;SDS011;8445;51.270;9.434;2023-02-28T18:44:36;16.27;;;9.47;;
16662;SDS011;8445;51.270;9.434;2023-02-28T18:47:02;14.83;;;10.00;;
16662;SDS011;8445;51.270;9.434;2023-02-28T18:49:29;15.13;;;9.87;;
16662;SDS011;8445;51.270;9.434;2023-02-28T18:51:58;16.00;;;10.33;;
16662;SDS011;8445;51.270;9.434;2023-02-28T18:54:24;13.77;;;10.20;;
16662;SDS011;8445;51.270;9.434;2023-02-28T18:56:49;18.00;;;11.10;;
16662;SDS011;8445;51.270;9.434;2023-02-28T18:59:15;15.67;;;10.77;;
16662;SDS011;8445;51.270;9.434;2023-02-28T19:01:41;17.07;;;10.43;;
16662;SDS011;8445;51.270;9.434;2023-02-28T19:04:09;14.83;;;10.40;;